createdAt,value
2022-12-07T00:02:04.912Z,0.55
2022-12-07T00:04:33.166Z,0.57
2022-12-07T00:07:01.339Z,0.58
2022-12-07T00:09:29.529Z,0.59
2022-12-07T00:11:57.664Z,0.59
2022-12-07T00:14:25.800Z,0.59
2022-12-07T00:16:54.042Z,0.58
2022-12-07T00:19:22.251Z,0.60
2022-12-07T00:21:50.609Z,0.63
2022-12-07T00:24:18.863Z,0.65
2022-12-07T00:26:47.007Z,0.66
2022-12-07T00:29:21.032Z,0.65
2022-12-07T00:31:49.126Z,0.66
2022-12-07T00:34:21.603Z,0.66
2022-12-07T00:36:50.566Z,0.67
2022-12-07T00:39:18.804Z,0.68
2022-12-07T00:41:46.982Z,0.70
2022-12-07T00:44:15.131Z,0.72
2022-12-07T00:46:43.271Z,0.74
2022-12-07T00:49:11.393Z,0.76
2022-12-07T00:51:39.526Z,0.77
2022-12-07T00:54:07.799Z,0.78
2022-12-07T00:56:36.017Z,0.77
2022-12-07T00:59:05.331Z,0.79
2022-12-07T01:01:38.222Z,0.80
2022-12-07T01:04:06.718Z,0.81
2022-12-07T01:06:34.906Z,0.82
2022-12-07T01:09:04.984Z,0.83
2022-12-07T01:11:33.918Z,0.85
2022-12-07T01:14:03.124Z,0.85
2022-12-07T01:16:32.808Z,0.86
2022-12-07T01:19:01.822Z,0.88
2022-12-07T01:21:35.946Z,0.91
2022-12-07T01:24:10.203Z,0.92
2022-12-07T01:26:38.226Z,0.95
2022-12-07T01:29:06.723Z,0.97
2022-12-07T01:31:35.313Z,0.98
2022-12-07T01:34:03.533Z,1.01
2022-12-07T01:36:34.189Z,1.03
2022-12-07T01:39:05.907Z,1.05
2022-12-07T01:41:38.225Z,1.06
2022-12-07T01:44:26.081Z,1.07
2022-12-07T01:46:57.217Z,1.12
2022-12-07T01:49:37.286Z,1.13
2022-12-07T01:52:38.766Z,1.16
2022-12-07T01:55:13.483Z,1.19
2022-12-07T01:57:46.765Z,1.21
2022-12-07T02:00:16.367Z,1.22
2022-12-07T02:02:53.550Z,1.24
2022-12-07T02:05:24.125Z,1.26
2022-12-07T02:07:56.233Z,1.28
2022-12-07T02:10:32.043Z,1.29
2022-12-07T02:13:12.772Z,1.31
2022-12-07T02:15:50.386Z,1.31
2022-12-07T02:18:30.933Z,1.32
2022-12-07T02:21:09.075Z,1.34
2022-12-07T02:23:55.311Z,1.36
2022-12-07T02:26:26.269Z,1.37
2022-12-07T02:29:06.362Z,1.39
2022-12-07T02:31:34.918Z,1.42
2022-12-07T02:34:14.261Z,1.45
2022-12-07T02:36:48.169Z,1.48
2022-12-07T02:39:21.528Z,1.49
2022-12-07T02:41:58.117Z,1.51
2022-12-07T02:44:28.425Z,1.52
2022-12-07T02:47:03.257Z,1.53
2022-12-07T02:49:32.975Z,1.56
2022-12-07T02:52:01.415Z,1.58
2022-12-07T02:54:29.554Z,1.59
2022-12-07T02:57:25.489Z,1.60
2022-12-07T03:00:15.652Z,1.61
2022-12-07T03:02:55.589Z,1.61
2022-12-07T03:05:42.986Z,1.61
2022-12-07T03:08:26.630Z,1.62
2022-12-07T03:11:06.115Z,1.63
2022-12-07T03:14:08.175Z,1.64
2022-12-07T03:17:14.861Z,1.65
2022-12-07T03:19:46.515Z,1.68
2022-12-07T03:22:16.262Z,1.69
2022-12-07T03:25:01.808Z,1.70
2022-12-07T03:27:45.954Z,1.72
2022-12-07T03:30:18.651Z,1.75
2022-12-07T03:33:04.025Z,1.77
2022-12-07T03:35:41.407Z,1.79
2022-12-07T03:38:23.188Z,1.82
2022-12-07T03:41:06.305Z,1.84
2022-12-07T03:43:35.881Z,1.85
2022-12-07T03:46:28.789Z,1.85
2022-12-07T03:49:24.355Z,1.85
2022-12-07T03:51:58.978Z,1.86
2022-12-07T03:54:43.177Z,1.87
2022-12-07T03:57:12.864Z,1.89
2022-12-07T03:59:42.997Z,1.90
2022-12-07T04:02:14.270Z,1.90
2022-12-07T04:04:43.576Z,1.91
2022-12-07T04:07:12.150Z,1.93
2022-12-07T04:09:40.309Z,1.94
2022-12-07T04:12:08.847Z,1.96
2022-12-07T04:14:37.059Z,1.96
2022-12-07T04:17:05.216Z,1.97
2022-12-07T04:19:34.733Z,1.98
2022-12-07T04:22:05.125Z,1.98
2022-12-07T04:24:34.720Z,1.99
2022-12-07T04:27:03.017Z,1.99
2022-12-07T04:29:31.166Z,2.00
2022-12-07T04:31:59.346Z,2.01
2022-12-07T04:34:27.593Z,2.01
2022-12-07T04:36:55.791Z,2.00
2022-12-07T04:39:27.072Z,2.00
2022-12-07T04:41:56.011Z,2.01
2022-12-07T04:44:25.700Z,2.03
2022-12-07T04:46:54.870Z,2.04
2022-12-07T04:49:23.087Z,2.05
2022-12-07T04:51:52.631Z,2.06
2022-12-07T04:54:21.651Z,2.06
2022-12-07T04:56:50.033Z,2.07
2022-12-07T04:59:18.459Z,2.09
2022-12-07T05:01:46.726Z,2.08
2022-12-07T05:04:14.861Z,2.08
2022-12-07T05:06:43.170Z,2.07
2022-12-07T05:09:11.252Z,2.08
2022-12-07T05:11:39.327Z,2.10
2022-12-07T05:14:20.299Z,2.10
2022-12-07T05:16:51.317Z,2.09
2022-12-07T05:19:20.096Z,2.09
2022-12-07T05:21:49.027Z,2.12
2022-12-07T05:24:18.129Z,2.15
2022-12-07T05:26:47.213Z,2.18
2022-12-07T05:29:17.489Z,2.20
2022-12-07T05:31:46.600Z,2.22
2022-12-07T05:34:15.495Z,2.25
2022-12-07T05:36:43.578Z,2.27
2022-12-07T05:39:12.036Z,2.29
2022-12-07T05:41:58.897Z,2.31
2022-12-07T05:44:27.147Z,2.33
2022-12-07T05:46:55.550Z,2.34
2022-12-07T05:49:23.726Z,2.36
2022-12-07T05:51:51.791Z,2.38
2022-12-07T05:54:20.376Z,2.40
2022-12-07T05:56:48.622Z,2.41
2022-12-07T05:59:28.783Z,2.42
2022-12-07T06:02:01.617Z,2.43
2022-12-07T06:04:34.236Z,2.44
2022-12-07T06:07:02.618Z,2.46
2022-12-07T06:09:31.277Z,2.47
2022-12-07T06:12:18.393Z,2.49
2022-12-07T06:14:47.007Z,2.50
2022-12-07T06:17:15.414Z,2.51
2022-12-07T06:19:44.374Z,2.52
2022-12-07T06:22:13.192Z,2.53
2022-12-07T06:24:41.916Z,2.55
2022-12-07T06:27:11.273Z,2.58
2022-12-07T06:29:39.410Z,2.62
2022-12-07T06:32:07.823Z,2.65
2022-12-07T06:34:36.270Z,2.68
2022-12-07T06:37:04.765Z,2.69
2022-12-07T06:39:33.203Z,2.72
2022-12-07T06:42:01.675Z,2.74
2022-12-07T06:44:29.791Z,2.76
2022-12-07T06:47:18.933Z,2.77
2022-12-07T06:49:46.166Z,2.78
2022-12-07T06:52:14.329Z,2.79
2022-12-07T06:54:42.655Z,2.79
2022-12-07T06:57:10.877Z,2.80
2022-12-07T06:59:39.049Z,2.80
2022-12-07T07:02:07.122Z,2.78
2022-12-07T07:04:35.410Z,2.75
2022-12-07T07:07:03.595Z,2.74
2022-12-07T07:09:31.702Z,2.71
2022-12-07T07:11:59.828Z,2.68
2022-12-07T07:14:28.414Z,2.66
2022-12-07T07:16:56.681Z,2.65
2022-12-07T07:19:24.885Z,2.64
2022-12-07T07:21:52.991Z,2.64
2022-12-07T07:24:21.287Z,2.66
2022-12-07T07:26:49.453Z,2.67
2022-12-07T07:29:17.588Z,2.70
2022-12-07T07:31:45.944Z,2.78
2022-12-07T07:34:14.220Z,2.90
2022-12-07T07:36:42.329Z,3.00
2022-12-07T07:39:11.374Z,3.04
2022-12-07T07:41:39.708Z,3.07
2022-12-07T07:44:08.690Z,3.08
2022-12-07T07:46:37.027Z,3.09
2022-12-07T18:34:16.759Z,2.44
2022-12-07T18:36:49.053Z,2.42
2022-12-07T18:39:17.935Z,2.45
2022-12-07T18:41:45.735Z,2.50
2022-12-07T18:44:13.808Z,2.56
2022-12-07T18:46:42.035Z,2.59
2022-12-07T18:49:12.324Z,2.56
2022-12-07T18:51:39.098Z,2.52
2022-12-07T18:54:07.041Z,2.49
2022-12-07T18:56:33.908Z,2.45
2022-12-07T18:59:21.255Z,2.45
2022-12-07T19:01:51.061Z,2.46
2022-12-07T19:04:18.266Z,2.51
2022-12-07T19:06:47.317Z,2.55
2022-12-07T19:09:14.797Z,2.57
2022-12-07T19:11:51.431Z,2.60
2022-12-07T19:14:24.049Z,2.63
2022-12-07T19:16:54.250Z,2.61
2022-12-07T19:19:23.765Z,2.58
2022-12-07T19:21:50.850Z,2.54
2022-12-07T19:24:23.199Z,2.50
2022-12-07T19:26:51.932Z,2.41
2022-12-07T19:29:19.457Z,2.28
2022-12-07T19:31:46.740Z,2.18
2022-12-07T19:34:15.923Z,2.09
2022-12-07T19:36:43.863Z,2.03
2022-12-07T19:39:14.820Z,1.97
2022-12-07T19:41:44.562Z,1.94
2022-12-07T19:44:14.431Z,1.92
2022-12-07T19:46:43.314Z,1.91
2022-12-07T19:49:10.132Z,1.91
2022-12-07T19:51:36.890Z,1.91
2022-12-07T19:54:03.755Z,1.91
2022-12-07T19:56:31.013Z,1.87
2022-12-07T19:59:01.654Z,1.82
2022-12-07T20:01:29.585Z,1.80
2022-12-07T20:03:57.082Z,1.82
2022-12-07T20:06:24.811Z,1.89
2022-12-07T20:08:52.141Z,1.97
2022-12-07T20:11:38.801Z,2.05
2022-12-07T20:14:11.481Z,2.04
2022-12-07T20:16:43.831Z,1.97
2022-12-07T20:19:12.214Z,1.92
2022-12-07T20:21:39.970Z,1.89
2022-12-07T20:24:09.693Z,1.91
2022-12-07T20:26:37.307Z,1.93
2022-12-07T20:29:13.309Z,1.93
2022-12-07T20:31:43.626Z,1.91
2022-12-07T20:34:11.346Z,1.89
2022-12-07T20:36:38.397Z,1.92
2022-12-07T20:39:06.541Z,1.94
2022-12-07T20:41:52.157Z,1.95
2022-12-07T20:44:19.345Z,1.97
2022-12-07T20:46:46.666Z,1.99
2022-12-07T20:49:16.543Z,1.99
2022-12-07T20:51:45.027Z,2.00
2022-12-07T20:54:13.207Z,2.01
2022-12-07T20:56:40.294Z,1.99
2022-12-07T20:59:10.237Z,1.91
2022-12-07T21:01:37.222Z,1.78
2022-12-07T21:04:04.595Z,1.78
2022-12-07T21:06:31.818Z,1.73
2022-12-07T21:09:00.186Z,1.69
2022-12-07T21:11:30.066Z,1.66
2022-12-07T21:13:57.407Z,1.65
2022-12-07T21:16:27.797Z,1.64
2022-12-07T21:18:56.257Z,1.65
2022-12-07T21:21:23.806Z,1.65
2022-12-07T21:23:56.899Z,1.66
2022-12-07T21:26:28.900Z,1.64
2022-12-07T21:28:56.363Z,1.63
2022-12-07T21:31:23.201Z,1.62
2022-12-07T21:33:50.356Z,1.63
2022-12-07T21:36:20.689Z,1.66
2022-12-07T21:38:48.482Z,1.71
2022-12-07T21:41:24.320Z,1.76
2022-12-07T21:43:51.873Z,1.80
2022-12-07T21:46:20.423Z,1.84
2022-12-07T21:48:57.214Z,1.85
2022-12-07T21:51:26.926Z,1.84
2022-12-07T21:53:55.742Z,1.85
2022-12-07T21:56:25.809Z,1.85
2022-12-07T21:58:58.163Z,1.85
2022-12-07T22:01:29.322Z,1.83
2022-12-07T22:03:56.253Z,1.84
2022-12-07T22:06:24.712Z,1.81
2022-12-07T22:08:55.844Z,1.82
2022-12-07T22:11:23.012Z,1.79
2022-12-07T22:14:10.996Z,1.74
2022-12-07T22:16:38.551Z,1.73
2022-12-07T22:19:07.396Z,1.73
2022-12-07T22:21:34.920Z,1.74
2022-12-07T22:24:03.746Z,1.75
2022-12-07T22:26:30.928Z,1.73
2022-12-07T22:28:57.941Z,1.71
2022-12-07T22:31:25.189Z,1.68
2022-12-07T22:33:52.182Z,1.67
2022-12-07T22:36:19.015Z,1.63
2022-12-07T22:38:46.430Z,1.59
2022-12-07T22:41:21.150Z,1.56
2022-12-07T22:43:48.111Z,1.52
2022-12-07T22:46:15.261Z,1.48
2022-12-07T22:48:42.265Z,1.43
2022-12-07T22:51:31.965Z,1.37
2022-12-07T22:54:00.406Z,1.31
2022-12-07T22:56:29.308Z,1.27
2022-12-07T22:58:56.639Z,1.22
2022-12-07T23:01:24.083Z,1.18
2022-12-07T23:03:51.938Z,1.14
2022-12-07T23:06:23.451Z,1.10
2022-12-07T23:08:51.320Z,1.07
2022-12-07T23:11:39.110Z,1.03
2022-12-07T23:14:11.856Z,1.00
2022-12-07T23:16:38.874Z,1.00
2022-12-07T23:19:05.740Z,0.97
2022-12-07T23:21:32.815Z,0.99
2022-12-07T23:23:59.752Z,1.01
2022-12-07T23:26:26.879Z,1.03
2022-12-07T23:28:53.801Z,1.04
2022-12-07T23:31:21.911Z,1.07
2022-12-07T23:33:48.956Z,1.12
2022-12-07T23:36:19.494Z,1.14
2022-12-07T23:38:51.777Z,1.11
2022-12-07T23:41:21.366Z,1.03
2022-12-07T23:43:48.518Z,0.96
2022-12-07T23:46:21.775Z,0.89
2022-12-07T23:48:50.763Z,0.84
2022-12-07T23:51:18.606Z,0.80
2022-12-07T23:53:48.221Z,0.76
2022-12-07T23:56:18.235Z,0.73
2022-12-07T23:58:46.025Z,0.71
